sensor_id;sensor_type;location;lat;lon;timestamp;P1;durP1;ratioP1;P2;durP2;ratioP2
22318;SDS011;11327;52.334;9.506;2023-05-13T00:00:31;8.73;;;7.47;;
22318;SDS011;11327;52.334;9.506;2023-05-13T00:03:52;9.43;;;8.40;;
22318;SDS011;11327;52.334;9.506;2023-05-13T00:07:13;9.30;;;7.75;;
22318;SDS011;11327;52.334;9.506;2023-05-13T00:10:34;9.95;;;8.35;;
22318;SDS011;11327;52.334;9.506;2023-05-13T00:13:55;8.28;;;7.45;;
22318;SDS011;11327;52.334;9.506;2023-05-13T00:17:16;9.83;;;7.90;;
22318;SDS011;11327;52.334;9.506;2023-05-13T00:20:37;9.85;;;8.13;;
22318;SDS011;11327;52.334;9.506;2023-05-13T00:23:58;10.80;;;8.08;;
22318;SDS011;11327;52.334;9.506;2023-05-13T00:27:18;8.88;;;7.97;;
22318;SDS011;11327;52.334;9.506;2023-05-13T00:30:40;8.60;;;7.70;;
22318;SDS011;11327;52.334;9.506;2023-05-13T00:34:03;8.75;;;7.70;;
22318;SDS011;11327;52.334;9.506;2023-05-13T00:37:23;8.58;;;7.67;;
22318;SDS011;11327;52.334;9.506;2023-05-13T00:40:44;9.25;;;8.30;;
22318;SDS011;11327;52.334;9.506;2023-05-13T00:44:07;9.70;;;7.95;;
22318;SDS011;11327;52.334;9.506;2023-05-13T00:47:27;11.95;;;8.08;;
22318;SDS011;11327;52.334;9.506;2023-05-13T00:50:48;9.55;;;7.50;;
22318;SDS011;11327;52.334;9.506;2023-05-13T00:54:10;9.10;;;7.60;;
22318;SDS011;11327;52.334;9.506;2023-05-13T00:57:31;8.48;;;7.67;;
22318;SDS011;11327;52.334;9.506;2023-05-13T01:08:26;8.50;;;7.53;;
22318;SDS011;11327;52.334;9.506;2023-05-13T01:11:43;10.13;;;8.13;;
22318;SDS011;11327;52.334;9.506;2023-05-13T01:15:09;10.23;;;7.53;;
22318;SDS011;11327;52.334;9.506;2023-05-13T01:18:35;8.55;;;7.72;;
22318;SDS011;11327;52.334;9.506;2023-05-13T01:22:05;8.00;;;7.20;;
22318;SDS011;11327;52.334;9.506;2023-05-13T01:25:26;10.00;;;8.00;;
22318;SDS011;11327;52.334;9.506;2023-05-13T01:28:47;8.70;;;7.80;;
22318;SDS011;11327;52.334;9.506;2023-05-13T01:32:08;8.63;;;7.80;;
22318;SDS011;11327;52.334;9.506;2023-05-13T01:35:31;8.83;;;7.80;;
22318;SDS011;11327;52.334;9.506;2023-05-13T01:38:52;10.18;;;8.98;;
22318;SDS011;11327;52.334;9.506;2023-05-13T01:42:15;10.15;;;8.55;;
22318;SDS011;11327;52.334;9.506;2023-05-13T01:45:36;9.23;;;8.25;;
22318;SDS011;11327;52.334;9.506;2023-05-13T01:48:56;10.20;;;8.20;;
22318;SDS011;11327;52.334;9.506;2023-05-13T01:52:17;10.58;;;8.75;;
22318;SDS011;11327;52.334;9.506;2023-05-13T01:55:38;10.23;;;8.85;;
22318;SDS011;11327;52.334;9.506;2023-05-13T01:58:59;8.93;;;7.80;;
22318;SDS011;11327;52.334;9.506;2023-05-13T02:02:20;11.73;;;9.08;;
22318;SDS011;11327;52.334;9.506;2023-05-13T02:05:41;13.25;;;8.90;;
22318;SDS011;11327;52.334;9.506;2023-05-13T02:09:01;9.78;;;8.53;;
22318;SDS011;11327;52.334;9.506;2023-05-13T02:12:22;9.40;;;8.40;;
22318;SDS011;11327;52.334;9.506;2023-05-13T02:15:43;11.03;;;8.23;;
22318;SDS011;11327;52.334;9.506;2023-05-13T02:19:03;9.75;;;7.78;;
22318;SDS011;11327;52.334;9.506;2023-05-13T02:22:24;10.98;;;8.18;;
22318;SDS011;11327;52.334;9.506;2023-05-13T02:25:45;10.08;;;8.35;;
22318;SDS011;11327;52.334;9.506;2023-05-13T02:29:06;9.65;;;7.65;;
22318;SDS011;11327;52.334;9.506;2023-05-13T02:32:27;9.15;;;7.67;;
22318;SDS011;11327;52.334;9.506;2023-05-13T02:35:47;9.23;;;7.67;;
22318;SDS011;11327;52.334;9.506;2023-05-13T02:39:08;12.07;;;8.05;;
22318;SDS011;11327;52.334;9.506;2023-05-13T02:42:29;9.03;;;8.13;;
22318;SDS011;11327;52.334;9.506;2023-05-13T02:45:50;8.88;;;7.97;;
22318;SDS011;11327;52.334;9.506;2023-05-13T02:49:10;9.13;;;8.23;;
22318;SDS011;11327;52.334;9.506;2023-05-13T02:52:32;9.58;;;8.13;;
22318;SDS011;11327;52.334;9.506;2023-05-13T02:55:55;8.75;;;7.95;;
22318;SDS011;11327;52.334;9.506;2023-05-13T02:59:15;8.95;;;8.05;;
22318;SDS011;11327;52.334;9.506;2023-05-13T03:02:36;9.13;;;7.80;;
22318;SDS011;11327;52.334;9.506;2023-05-13T03:05:57;10.13;;;8.68;;
22318;SDS011;11327;52.334;9.506;2023-05-13T03:09:18;12.70;;;8.08;;
22318;SDS011;11327;52.334;9.506;2023-05-13T03:12:39;9.35;;;8.08;;
22318;SDS011;11327;52.334;9.506;2023-05-13T03:16:00;9.48;;;7.60;;
22318;SDS011;11327;52.334;9.506;2023-05-13T03:19:20;9.38;;;8.38;;
22318;SDS011;11327;52.334;9.506;2023-05-13T03:22:41;8.65;;;7.75;;
22318;SDS011;11327;52.334;9.506;2023-05-13T03:26:02;8.93;;;7.80;;
22318;SDS011;11327;52.334;9.506;2023-05-13T03:29:22;8.65;;;7.60;;
22318;SDS011;11327;52.334;9.506;2023-05-13T03:32:43;9.03;;;7.92;;
22318;SDS011;11327;52.334;9.506;2023-05-13T03:36:04;8.30;;;7.50;;
22318;SDS011;11327;52.334;9.506;2023-05-13T03:39:26;9.65;;;7.62;;
22318;SDS011;11327;52.334;9.506;2023-05-13T03:42:47;8.28;;;7.03;;
22318;SDS011;11327;52.334;9.506;2023-05-13T03:46:07;8.33;;;7.30;;
22318;SDS011;11327;52.334;9.506;2023-05-13T03:49:28;8.78;;;7.87;;
22318;SDS011;11327;52.334;9.506;2023-05-13T03:52:49;7.90;;;7.10;;
22318;SDS011;11327;52.334;9.506;2023-05-13T03:56:12;8.70;;;7.80;;
22318;SDS011;11327;52.334;9.506;2023-05-13T03:59:33;8.60;;;7.20;;
22318;SDS011;11327;52.334;9.506;2023-05-13T04:02:54;7.62;;;6.92;;
22318;SDS011;11327;52.334;9.506;2023-05-13T04:06:14;7.58;;;6.72;;
22318;SDS011;11327;52.334;9.506;2023-05-13T04:09:35;9.38;;;6.92;;
22318;SDS011;11327;52.334;9.506;2023-05-13T04:12:56;7.90;;;6.85;;
22318;SDS011;11327;52.334;9.506;2023-05-13T04:16:17;8.40;;;6.95;;
22318;SDS011;11327;52.334;9.506;2023-05-13T04:19:37;7.67;;;6.60;;
22318;SDS011;11327;52.334;9.506;2023-05-13T04:22:58;8.05;;;6.97;;
22318;SDS011;11327;52.334;9.506;2023-05-13T04:26:19;11.25;;;7.42;;
22318;SDS011;11327;52.334;9.506;2023-05-13T04:29:41;9.53;;;7.47;;
22318;SDS011;11327;52.334;9.506;2023-05-13T04:33:02;8.15;;;7.20;;
22318;SDS011;11327;52.334;9.506;2023-05-13T04:36:22;10.72;;;7.85;;
22318;SDS011;11327;52.334;9.506;2023-05-13T04:39:46;8.73;;;7.45;;
22318;SDS011;11327;52.334;9.506;2023-05-13T04:43:07;8.23;;;7.12;;
22318;SDS011;11327;52.334;9.506;2023-05-13T04:46:28;9.48;;;7.92;;
22318;SDS011;11327;52.334;9.506;2023-05-13T04:49:49;8.38;;;7.45;;
22318;SDS011;11327;52.334;9.506;2023-05-13T04:53:10;8.53;;;7.08;;
22318;SDS011;11327;52.334;9.506;2023-05-13T04:56:30;8.50;;;7.70;;
22318;SDS011;11327;52.334;9.506;2023-05-13T04:59:51;10.98;;;7.95;;
22318;SDS011;11327;52.334;9.506;2023-05-13T05:03:12;8.58;;;7.75;;
22318;SDS011;11327;52.334;9.506;2023-05-13T05:06:33;9.10;;;8.13;;
22318;SDS011;11327;52.334;9.506;2023-05-13T05:09:53;10.23;;;8.60;;
22318;SDS011;11327;52.334;9.506;2023-05-13T05:13:14;8.90;;;8.00;;
22318;SDS011;11327;52.334;9.506;2023-05-13T05:16:35;9.03;;;8.13;;
22318;SDS011;11327;52.334;9.506;2023-05-13T05:19:56;9.35;;;8.35;;
22318;SDS011;11327;52.334;9.506;2023-05-13T05:23:17;10.72;;;8.95;;
22318;SDS011;11327;52.334;9.506;2023-05-13T05:26:37;10.35;;;8.40;;
22318;SDS011;11327;52.334;9.506;2023-05-13T05:29:58;9.80;;;8.38;;
22318;SDS011;11327;52.334;9.506;2023-05-13T05:33:19;9.48;;;8.45;;
22318;SDS011;11327;52.334;9.506;2023-05-13T05:36:39;9.80;;;8.90;;
22318;SDS011;11327;52.334;9.506;2023-05-13T05:40:00;9.30;;;8.38;;
22318;SDS011;11327;52.334;9.506;2023-05-13T05:43:21;10.23;;;9.05;;
22318;SDS011;11327;52.334;9.506;2023-05-13T05:46:42;10.28;;;9.03;;
22318;SDS011;11327;52.334;9.506;2023-05-13T05:50:02;10.00;;;8.85;;
22318;SDS011;11327;52.334;9.506;2023-05-13T05:53:23;9.18;;;8.25;;
22318;SDS011;11327;52.334;9.506;2023-05-13T05:56:44;9.38;;;8.48;;
22318;SDS011;11327;52.334;9.506;2023-05-13T06:00:05;10.80;;;8.85;;
22318;SDS011;11327;52.334;9.506;2023-05-13T06:03:27;9.53;;;8.20;;
22318;SDS011;11327;52.334;9.506;2023-05-13T06:06:47;9.43;;;8.38;;
22318;SDS011;11327;52.334;9.506;2023-05-13T06:10:08;8.85;;;7.70;;
22318;SDS011;11327;52.334;9.506;2023-05-13T06:13:30;7.75;;;7.05;;
22318;SDS011;11327;52.334;9.506;2023-05-13T06:16:50;8.63;;;7.65;;
22318;SDS011;11327;52.334;9.506;2023-05-13T06:20:11;8.90;;;7.72;;
22318;SDS011;11327;52.334;9.506;2023-05-13T06:23:32;9.50;;;8.38;;
22318;SDS011;11327;52.334;9.506;2023-05-13T06:26:53;8.55;;;7.60;;
22318;SDS011;11327;52.334;9.506;2023-05-13T06:30:13;8.43;;;6.75;;
22318;SDS011;11327;52.334;9.506;2023-05-13T06:33:34;8.55;;;7.62;;
22318;SDS011;11327;52.334;9.506;2023-05-13T06:36:55;9.08;;;7.62;;
22318;SDS011;11327;52.334;9.506;2023-05-13T06:40:16;9.68;;;8.03;;
22318;SDS011;11327;52.334;9.506;2023-05-13T06:43:36;8.18;;;7.37;;
22318;SDS011;11327;52.334;9.506;2023-05-13T06:46:58;8.30;;;7.47;;
22318;SDS011;11327;52.334;9.506;2023-05-13T06:50:18;9.10;;;7.70;;
22318;SDS011;11327;52.334;9.506;2023-05-13T06:53:39;8.05;;;7.25;;
22318;SDS011;11327;52.334;9.506;2023-05-13T06:57:00;8.75;;;7.37;;
22318;SDS011;11327;52.334;9.506;2023-05-13T07:00:21;10.88;;;8.48;;
22318;SDS011;11327;52.334;9.506;2023-05-13T07:03:42;11.48;;;8.20;;
22318;SDS011;11327;52.334;9.506;2023-05-13T07:07:03;9.03;;;8.00;;
22318;SDS011;11327;52.334;9.506;2023-05-13T07:10:24;8.65;;;7.75;;
22318;SDS011;11327;52.334;9.506;2023-05-13T07:13:45;9.63;;;8.18;;
22318;SDS011;11327;52.334;9.506;2023-05-13T07:17:06;11.10;;;8.03;;
22318;SDS011;11327;52.334;9.506;2023-05-13T07:20:27;8.78;;;7.85;;
22318;SDS011;11327;52.334;9.506;2023-05-13T07:23:48;8.48;;;7.67;;
22318;SDS011;11327;52.334;9.506;2023-05-13T07:27:08;9.78;;;7.90;;
22318;SDS011;11327;52.334;9.506;2023-05-13T07:30:29;11.83;;;8.38;;
22318;SDS011;11327;52.334;9.506;2023-05-13T07:33:50;9.48;;;7.90;;
22318;SDS011;11327;52.334;9.506;2023-05-13T07:37:11;11.12;;;8.30;;
22318;SDS011;11327;52.334;9.506;2023-05-13T07:40:31;17.95;;;9.28;;
22318;SDS011;11327;52.334;9.506;2023-05-13T07:43:52;9.95;;;8.03;;
22318;SDS011;11327;52.334;9.506;2023-05-13T07:47:13;9.55;;;7.95;;
22318;SDS011;11327;52.334;9.506;2023-05-13T07:50:33;8.78;;;7.58;;
22318;SDS011;11327;52.334;9.506;2023-05-13T07:53:54;8.85;;;7.95;;
22318;SDS011;11327;52.334;9.506;2023-05-13T07:57:16;9.33;;;7.22;;
22318;SDS011;11327;52.334;9.506;2023-05-13T08:00:37;7.90;;;7.10;;
22318;SDS011;11327;52.334;9.506;2023-05-13T08:03:58;7.78;;;6.50;;
22318;SDS011;11327;52.334;9.506;2023-05-13T08:07:18;7.80;;;6.78;;
22318;SDS011;11327;52.334;9.506;2023-05-13T08:10:39;8.30;;;6.87;;
22318;SDS011;11327;52.334;9.506;2023-05-13T08:14:00;9.53;;;7.55;;
22318;SDS011;11327;52.334;9.506;2023-05-13T08:17:20;7.58;;;6.75;;
22318;SDS011;11327;52.334;9.506;2023-05-13T08:20:41;7.33;;;6.62;;
22318;SDS011;11327;52.334;9.506;2023-05-13T08:24:02;11.20;;;7.05;;
22318;SDS011;11327;52.334;9.506;2023-05-13T08:27:23;9.80;;;6.80;;
22318;SDS011;11327;52.334;9.506;2023-05-13T08:30:44;8.48;;;7.12;;
22318;SDS011;11327;52.334;9.506;2023-05-13T08:34:05;8.35;;;6.85;;
22318;SDS011;11327;52.334;9.506;2023-05-13T08:37:25;8.70;;;6.80;;
22318;SDS011;11327;52.334;9.506;2023-05-13T08:40:46;9.63;;;7.37;;
22318;SDS011;11327;52.334;9.506;2023-05-13T08:44:07;8.18;;;6.42;;
22318;SDS011;11327;52.334;9.506;2023-05-13T08:51:13;7.25;;;5.95;;
22318;SDS011;11327;52.334;9.506;2023-05-13T08:54:34;7.47;;;5.83;;
22318;SDS011;11327;52.334;9.506;2023-05-13T08:57:55;8.15;;;6.10;;
22318;SDS011;11327;52.334;9.506;2023-05-13T09:01:16;10.48;;;5.97;;
22318;SDS011;11327;52.334;9.506;2023-05-13T09:04:37;11.18;;;6.30;;
22318;SDS011;11327;52.334;9.506;2023-05-13T09:08:04;7.35;;;5.70;;
22318;SDS011;11327;52.334;9.506;2023-05-13T09:11:26;7.78;;;5.42;;
22318;SDS011;11327;52.334;9.506;2023-05-13T09:14:48;7.62;;;5.58;;
22318;SDS011;11327;52.334;9.506;2023-05-13T09:18:09;7.25;;;5.12;;
22318;SDS011;11327;52.334;9.506;2023-05-13T09:21:31;7.10;;;5.85;;
22318;SDS011;11327;52.334;9.506;2023-05-13T09:24:55;8.80;;;6.55;;
22318;SDS011;11327;52.334;9.506;2023-05-13T09:28:15;7.17;;;6.10;;
22318;SDS011;11327;52.334;9.506;2023-05-13T09:31:36;6.45;;;5.75;;
22318;SDS011;11327;52.334;9.506;2023-05-13T09:34:58;6.62;;;5.55;;
22318;SDS011;11327;52.334;9.506;2023-05-13T09:38:25;10.45;;;5.33;;
22318;SDS011;11327;52.334;9.506;2023-05-13T09:41:47;8.03;;;5.60;;
22318;SDS011;11327;52.334;9.506;2023-05-13T09:45:08;7.22;;;5.50;;
22318;SDS011;11327;52.334;9.506;2023-05-13T09:48:30;6.20;;;5.60;;
22318;SDS011;11327;52.334;9.506;2023-05-13T09:51:52;8.50;;;6.03;;
22318;SDS011;11327;52.334;9.506;2023-05-13T09:55:13;7.28;;;6.15;;
22318;SDS011;11327;52.334;9.506;2023-05-13T09:58:34;8.63;;;5.80;;
22318;SDS011;11327;52.334;9.506;2023-05-13T10:01:55;6.00;;;5.17;;
22318;SDS011;11327;52.334;9.506;2023-05-13T10:05:18;6.10;;;5.47;;
22318;SDS011;11327;52.334;9.506;2023-05-13T10:08:38;6.97;;;4.95;;
22318;SDS011;11327;52.334;9.506;2023-05-13T10:11:59;7.70;;;5.60;;
22318;SDS011;11327;52.334;9.506;2023-05-13T10:15:22;7.40;;;5.30;;
22318;SDS011;11327;52.334;9.506;2023-05-13T10:18:44;5.78;;;5.28;;
22318;SDS011;11327;52.334;9.506;2023-05-13T10:22:06;8.48;;;5.78;;
22318;SDS011;11327;52.334;9.506;2023-05-13T10:25:27;7.67;;;5.50;;
22318;SDS011;11327;52.334;9.506;2023-05-13T10:28:49;8.35;;;5.28;;
22318;SDS011;11327;52.334;9.506;2023-05-13T10:32:10;6.87;;;5.83;;
22318;SDS011;11327;52.334;9.506;2023-05-13T10:35:33;6.97;;;5.15;;
22318;SDS011;11327;52.334;9.506;2023-05-13T10:42:42;7.90;;;5.37;;
22318;SDS011;11327;52.334;9.506;2023-05-13T10:46:06;7.65;;;5.40;;
22318;SDS011;11327;52.334;9.506;2023-05-13T10:49:32;5.85;;;5.28;;
22318;SDS011;11327;52.334;9.506;2023-05-13T10:52:54;6.12;;;5.17;;
22318;SDS011;11327;52.334;9.506;2023-05-13T10:56:20;8.98;;;5.30;;
22318;SDS011;11327;52.334;9.506;2023-05-13T11:03:38;7.42;;;5.15;;
22318;SDS011;11327;52.334;9.506;2023-05-13T11:07:12;8.15;;;5.40;;
22318;SDS011;11327;52.334;9.506;2023-05-13T11:10:24;8.25;;;5.22;;
22318;SDS011;11327;52.334;9.506;2023-05-13T11:13:51;7.33;;;5.25;;
22318;SDS011;11327;52.334;9.506;2023-05-13T11:17:12;7.37;;;5.53;;
22318;SDS011;11327;52.334;9.506;2023-05-13T11:20:38;7.05;;;5.55;;
22318;SDS011;11327;52.334;9.506;2023-05-13T11:24:02;6.00;;;5.05;;
22318;SDS011;11327;52.334;9.506;2023-05-13T11:27:25;5.95;;;5.35;;
22318;SDS011;11327;52.334;9.506;2023-05-13T11:31:02;6.53;;;5.05;;
22318;SDS011;11327;52.334;9.506;2023-05-13T11:34:18;5.75;;;5.03;;
22318;SDS011;11327;52.334;9.506;2023-05-13T11:37:42;8.55;;;5.05;;
22318;SDS011;11327;52.334;9.506;2023-05-13T11:41:03;7.90;;;5.22;;
22318;SDS011;11327;52.334;9.506;2023-05-13T11:44:26;7.97;;;5.10;;
22318;SDS011;11327;52.334;9.506;2023-05-13T11:47:47;8.78;;;5.22;;
22318;SDS011;11327;52.334;9.506;2023-05-13T11:51:08;7.08;;;4.90;;
22318;SDS011;11327;52.334;9.506;2023-05-13T11:54:29;5.92;;;4.87;;
22318;SDS011;11327;52.334;9.506;2023-05-13T11:57:50;5.83;;;4.37;;
22318;SDS011;11327;52.334;9.506;2023-05-13T12:01:13;6.70;;;4.17;;
22318;SDS011;11327;52.334;9.506;2023-05-13T12:04:34;5.92;;;4.00;;
22318;SDS011;11327;52.334;9.506;2023-05-13T12:07:55;4.00;;;3.60;;
22318;SDS011;11327;52.334;9.506;2023-05-13T12:11:17;4.45;;;3.85;;
22318;SDS011;11327;52.334;9.506;2023-05-13T12:14:38;6.17;;;4.22;;
22318;SDS011;11327;52.334;9.506;2023-05-13T12:17:59;5.62;;;4.12;;
22318;SDS011;11327;52.334;9.506;2023-05-13T12:21:20;5.58;;;4.03;;
22318;SDS011;11327;52.334;9.506;2023-05-13T12:24:41;7.33;;;4.05;;
22318;SDS011;11327;52.334;9.506;2023-05-13T12:28:12;6.30;;;4.30;;
22318;SDS011;11327;52.334;9.506;2023-05-13T12:35:11;5.95;;;3.98;;
22318;SDS011;11327;52.334;9.506;2023-05-13T12:38:34;5.50;;;4.20;;
22318;SDS011;11327;52.334;9.506;2023-05-13T12:41:55;4.37;;;3.62;;
22318;SDS011;11327;52.334;9.506;2023-05-13T12:45:16;4.47;;;4.00;;
22318;SDS011;11327;52.334;9.506;2023-05-13T12:48:37;4.80;;;3.85;;
22318;SDS011;11327;52.334;9.506;2023-05-13T12:51:58;7.80;;;4.15;;
22318;SDS011;11327;52.334;9.506;2023-05-13T12:55:19;6.72;;;3.75;;
22318;SDS011;11327;52.334;9.506;2023-05-13T12:58:40;5.95;;;3.95;;
22318;SDS011;11327;52.334;9.506;2023-05-13T13:02:01;4.75;;;3.95;;
22318;SDS011;11327;52.334;9.506;2023-05-13T13:05:22;6.37;;;3.95;;
22318;SDS011;11327;52.334;9.506;2023-05-13T13:08:43;5.83;;;4.20;;
22318;SDS011;11327;52.334;9.506;2023-05-13T13:12:05;6.58;;;3.98;;
22318;SDS011;11327;52.334;9.506;2023-05-13T13:15:26;5.95;;;3.90;;
22318;SDS011;11327;52.334;9.506;2023-05-13T13:18:47;4.70;;;3.50;;
22318;SDS011;11327;52.334;9.506;2023-05-13T13:22:09;4.85;;;3.85;;
22318;SDS011;11327;52.334;9.506;2023-05-13T13:25:30;8.00;;;3.77;;
22318;SDS011;11327;52.334;9.506;2023-05-13T13:28:52;6.28;;;4.00;;
22318;SDS011;11327;52.334;9.506;2023-05-13T13:32:12;4.97;;;4.17;;
22318;SDS011;11327;52.334;9.506;2023-05-13T13:35:33;5.50;;;3.60;;
22318;SDS011;11327;52.334;9.506;2023-05-13T13:38:54;7.22;;;3.95;;
22318;SDS011;11327;52.334;9.506;2023-05-13T13:42:15;5.72;;;3.72;;
22318;SDS011;11327;52.334;9.506;2023-05-13T13:45:35;4.50;;;3.70;;
22318;SDS011;11327;52.334;9.506;2023-05-13T13:48:56;6.75;;;4.05;;
22318;SDS011;11327;52.334;9.506;2023-05-13T13:52:17;6.60;;;3.90;;
22318;SDS011;11327;52.334;9.506;2023-05-13T13:55:37;5.10;;;4.00;;
22318;SDS011;11327;52.334;9.506;2023-05-13T13:58:58;7.15;;;3.60;;
22318;SDS011;11327;52.334;9.506;2023-05-13T14:02:19;4.28;;;3.80;;
22318;SDS011;11327;52.334;9.506;2023-05-13T14:05:40;4.00;;;3.60;;
22318;SDS011;11327;52.334;9.506;2023-05-13T14:09:00;3.70;;;3.40;;
22318;SDS011;11327;52.334;9.506;2023-05-13T14:12:21;5.00;;;3.52;;
22318;SDS011;11327;52.334;9.506;2023-05-13T14:15:42;4.42;;;3.52;;
22318;SDS011;11327;52.334;9.506;2023-05-13T14:19:02;4.28;;;3.52;;
22318;SDS011;11327;52.334;9.506;2023-05-13T14:22:23;5.75;;;3.70;;
22318;SDS011;11327;52.334;9.506;2023-05-13T14:25:44;3.37;;;3.00;;
22318;SDS011;11327;52.334;9.506;2023-05-13T14:29:05;6.20;;;3.55;;
22318;SDS011;11327;52.334;9.506;2023-05-13T14:32:26;3.27;;;2.98;;
22318;SDS011;11327;52.334;9.506;2023-05-13T14:35:47;3.92;;;3.47;;
22318;SDS011;11327;52.334;9.506;2023-05-13T14:39:07;4.12;;;3.10;;
22318;SDS011;11327;52.334;9.506;2023-05-13T14:42:29;4.83;;;2.87;;
22318;SDS011;11327;52.334;9.506;2023-05-13T14:45:50;4.33;;;3.20;;
22318;SDS011;11327;52.334;9.506;2023-05-13T14:49:11;4.92;;;2.92;;
22318;SDS011;11327;52.334;9.506;2023-05-13T14:52:32;4.80;;;3.10;;
22318;SDS011;11327;52.334;9.506;2023-05-13T14:55:52;4.05;;;3.25;;
22318;SDS011;11327;52.334;9.506;2023-05-13T14:59:14;6.65;;;3.45;;
22318;SDS011;11327;52.334;9.506;2023-05-13T15:02:34;4.60;;;2.77;;
22318;SDS011;11327;52.334;9.506;2023-05-13T15:05:56;3.60;;;2.87;;
22318;SDS011;11327;52.334;9.506;2023-05-13T15:09:17;5.72;;;2.60;;
22318;SDS011;11327;52.334;9.506;2023-05-13T15:12:39;4.33;;;2.80;;
22318;SDS011;11327;52.334;9.506;2023-05-13T15:16:02;3.55;;;2.87;;
22318;SDS011;11327;52.334;9.506;2023-05-13T15:19:24;4.55;;;2.55;;
22318;SDS011;11327;52.334;9.506;2023-05-13T15:22:44;6.42;;;2.90;;
22318;SDS011;11327;52.334;9.506;2023-05-13T15:26:05;4.70;;;3.10;;
22318;SDS011;11327;52.334;9.506;2023-05-13T15:29:26;5.08;;;2.77;;
22318;SDS011;11327;52.334;9.506;2023-05-13T15:32:47;4.45;;;2.60;;
22318;SDS011;11327;52.334;9.506;2023-05-13T15:36:07;3.33;;;2.35;;
22318;SDS011;11327;52.334;9.506;2023-05-13T15:39:29;3.40;;;2.50;;
22318;SDS011;11327;52.334;9.506;2023-05-13T15:42:49;3.75;;;2.70;;
22318;SDS011;11327;52.334;9.506;2023-05-13T15:46:10;4.42;;;2.70;;
22318;SDS011;11327;52.334;9.506;2023-05-13T15:49:31;5.72;;;3.02;;
22318;SDS011;11327;52.334;9.506;2023-05-13T15:52:52;6.62;;;2.75;;
22318;SDS011;11327;52.334;9.506;2023-05-13T15:56:14;4.65;;;2.80;;
22318;SDS011;11327;52.334;9.506;2023-05-13T15:59:34;4.75;;;2.83;;
22318;SDS011;11327;52.334;9.506;2023-05-13T16:02:55;3.37;;;2.58;;
22318;SDS011;11327;52.334;9.506;2023-05-13T16:06:16;5.53;;;2.90;;
22318;SDS011;11327;52.334;9.506;2023-05-13T16:09:37;4.37;;;2.75;;
22318;SDS011;11327;52.334;9.506;2023-05-13T16:12:58;3.47;;;2.58;;
22318;SDS011;11327;52.334;9.506;2023-05-13T16:16:19;3.85;;;2.83;;
22318;SDS011;11327;52.334;9.506;2023-05-13T16:19:40;4.75;;;2.90;;
22318;SDS011;11327;52.334;9.506;2023-05-13T16:23:01;6.50;;;3.10;;
22318;SDS011;11327;52.334;9.506;2023-05-13T16:26:21;2.85;;;2.60;;
22318;SDS011;11327;52.334;9.506;2023-05-13T16:29:42;3.83;;;2.85;;
22318;SDS011;11327;52.334;9.506;2023-05-13T16:33:03;4.53;;;2.65;;
22318;SDS011;11327;52.334;9.506;2023-05-13T16:36:24;4.12;;;3.10;;
22318;SDS011;11327;52.334;9.506;2023-05-13T16:39:46;4.37;;;2.90;;
22318;SDS011;11327;52.334;9.506;2023-05-13T16:43:07;3.87;;;2.80;;
22318;SDS011;11327;52.334;9.506;2023-05-13T16:46:27;3.70;;;3.02;;
22318;SDS011;11327;52.334;9.506;2023-05-13T16:49:49;4.05;;;2.95;;
22318;SDS011;11327;52.334;9.506;2023-05-13T16:53:10;3.65;;;2.90;;
22318;SDS011;11327;52.334;9.506;2023-05-13T16:56:31;4.53;;;2.65;;
22318;SDS011;11327;52.334;9.506;2023-05-13T16:59:51;4.05;;;2.75;;
22318;SDS011;11327;52.334;9.506;2023-05-13T17:03:12;3.87;;;2.72;;
22318;SDS011;11327;52.334;9.506;2023-05-13T17:06:33;5.67;;;2.80;;
22318;SDS011;11327;52.334;9.506;2023-05-13T17:09:53;5.35;;;2.92;;
22318;SDS011;11327;52.334;9.506;2023-05-13T17:13:14;5.03;;;2.80;;
22318;SDS011;11327;52.334;9.506;2023-05-13T17:16:35;3.67;;;2.77;;
22318;SDS011;11327;52.334;9.506;2023-05-13T17:19:56;3.75;;;2.70;;
22318;SDS011;11327;52.334;9.506;2023-05-13T17:23:17;4.15;;;2.72;;
22318;SDS011;11327;52.334;9.506;2023-05-13T17:26:37;5.58;;;2.83;;
22318;SDS011;11327;52.334;9.506;2023-05-13T17:29:58;5.65;;;3.02;;
22318;SDS011;11327;52.334;9.506;2023-05-13T17:33:19;3.70;;;3.35;;
22318;SDS011;11327;52.334;9.506;2023-05-13T17:36:40;6.12;;;3.05;;
22318;SDS011;11327;52.334;9.506;2023-05-13T17:40:01;4.92;;;3.20;;
22318;SDS011;11327;52.334;9.506;2023-05-13T17:43:22;5.37;;;3.17;;
22318;SDS011;11327;52.334;9.506;2023-05-13T17:46:43;4.22;;;3.20;;
22318;SDS011;11327;52.334;9.506;2023-05-13T17:50:04;4.72;;;3.40;;
22318;SDS011;11327;52.334;9.506;2023-05-13T17:53:25;4.67;;;3.10;;
22318;SDS011;11327;52.334;9.506;2023-05-13T17:56:46;3.95;;;3.10;;
22318;SDS011;11327;52.334;9.506;2023-05-13T18:00:06;3.75;;;3.45;;
22318;SDS011;11327;52.334;9.506;2023-05-13T18:03:28;4.12;;;3.12;;
22318;SDS011;11327;52.334;9.506;2023-05-13T18:06:49;3.25;;;2.95;;
22318;SDS011;11327;52.334;9.506;2023-05-13T18:10:09;5.53;;;3.10;;
22318;SDS011;11327;52.334;9.506;2023-05-13T18:13:30;3.87;;;2.80;;
22318;SDS011;11327;52.334;9.506;2023-05-13T18:16:51;4.47;;;3.20;;
22318;SDS011;11327;52.334;9.506;2023-05-13T18:20:12;4.58;;;3.55;;
22318;SDS011;11327;52.334;9.506;2023-05-13T18:23:33;4.70;;;4.20;;
22318;SDS011;11327;52.334;9.506;2023-05-13T18:26:53;5.20;;;3.92;;
22318;SDS011;11327;52.334;9.506;2023-05-13T18:30:15;4.10;;;3.60;;
22318;SDS011;11327;52.334;9.506;2023-05-13T18:33:36;4.25;;;3.50;;
22318;SDS011;11327;52.334;9.506;2023-05-13T18:36:57;4.05;;;3.40;;
22318;SDS011;11327;52.334;9.506;2023-05-13T18:40:18;7.75;;;5.00;;
22318;SDS011;11327;52.334;9.506;2023-05-13T18:43:39;5.40;;;4.30;;
22318;SDS011;11327;52.334;9.506;2023-05-13T18:46:59;4.67;;;4.00;;
22318;SDS011;11327;52.334;9.506;2023-05-13T18:50:20;4.58;;;3.77;;
22318;SDS011;11327;52.334;9.506;2023-05-13T18:53:41;5.97;;;3.83;;
22318;SDS011;11327;52.334;9.506;2023-05-13T18:57:02;4.80;;;3.40;;
22318;SDS011;11327;52.334;9.506;2023-05-13T19:00:23;5.25;;;3.90;;
22318;SDS011;11327;52.334;9.506;2023-05-13T19:03:43;5.40;;;3.85;;
22318;SDS011;11327;52.334;9.506;2023-05-13T19:07:04;3.75;;;3.40;;
22318;SDS011;11327;52.334;9.506;2023-05-13T19:10:25;6.30;;;4.08;;
22318;SDS011;11327;52.334;9.506;2023-05-13T19:13:45;4.75;;;3.83;;
22318;SDS011;11327;52.334;9.506;2023-05-13T19:17:06;4.00;;;3.60;;
22318;SDS011;11327;52.334;9.506;2023-05-13T19:20:27;4.17;;;3.77;;
22318;SDS011;11327;52.334;9.506;2023-05-13T19:23:48;5.15;;;3.95;;
22318;SDS011;11327;52.334;9.506;2023-05-13T19:27:09;3.72;;;3.42;;
22318;SDS011;11327;52.334;9.506;2023-05-13T19:30:30;4.58;;;3.90;;
22318;SDS011;11327;52.334;9.506;2023-05-13T19:33:51;5.53;;;4.12;;
22318;SDS011;11327;52.334;9.506;2023-05-13T19:37:12;8.20;;;4.95;;
22318;SDS011;11327;52.334;9.506;2023-05-13T19:40:32;5.03;;;4.47;;
22318;SDS011;11327;52.334;9.506;2023-05-13T19:43:53;5.50;;;4.97;;
22318;SDS011;11327;52.334;9.506;2023-05-13T19:47:14;5.25;;;4.75;;
22318;SDS011;11327;52.334;9.506;2023-05-13T19:50:34;5.72;;;5.12;;
22318;SDS011;11327;52.334;9.506;2023-05-13T19:53:55;8.58;;;6.58;;
22318;SDS011;11327;52.334;9.506;2023-05-13T19:57:16;11.78;;;9.85;;
22318;SDS011;11327;52.334;9.506;2023-05-13T20:00:37;11.40;;;9.25;;
22318;SDS011;11327;52.334;9.506;2023-05-13T20:03:57;9.40;;;7.50;;
22318;SDS011;11327;52.334;9.506;2023-05-13T20:07:18;7.60;;;6.25;;
22318;SDS011;11327;52.334;9.506;2023-05-13T20:10:39;6.42;;;5.60;;
22318;SDS011;11327;52.334;9.506;2023-05-13T20:14:00;7.22;;;5.40;;
22318;SDS011;11327;52.334;9.506;2023-05-13T20:17:21;7.15;;;5.75;;
22318;SDS011;11327;52.334;9.506;2023-05-13T20:20:42;5.45;;;4.95;;
22318;SDS011;11327;52.334;9.506;2023-05-13T20:24:02;7.90;;;5.42;;
22318;SDS011;11327;52.334;9.506;2023-05-13T20:27:23;6.83;;;6.10;;
22318;SDS011;11327;52.334;9.506;2023-05-13T20:30:44;6.58;;;5.87;;